sensor_id;sensor_type;location;lat;lon;timestamp;pressure;altitude;pressure_sealevel;temperature;humidity
60244;BME280;46106;51.468;5.814;2022-12-17T00:00:24;101909.69;;;-0.80;100.00
60244;BME280;46106;51.468;5.814;2022-12-17T00:03:09;101918.59;;;-0.78;100.00
60244;BME280;46106;51.468;5.814;2022-12-17T00:05:54;101928.47;;;-0.77;100.00
60244;BME280;46106;51.468;5.814;2022-12-17T00:08:38;101919.38;;;-0.69;100.00
60244;BME280;46106;51.468;5.814;2022-12-17T00:11:22;101916.72;;;-0.72;100.00
60244;BME280;46106;51.468;5.814;2022-12-17T00:14:07;101915.88;;;-0.76;100.00
60244;BME280;46106;51.468;5.814;2022-12-17T00:16:51;101914.19;;;-0.80;100.00
60244;BME280;46106;51.468;5.814;2022-12-17T00:19:35;101912.31;;;-0.75;100.00
60244;BME280;46106;51.468;5.814;2022-12-17T00:22:19;101915.00;;;-0.77;100.00
60244;BME280;46106;51.468;5.814;2022-12-17T00:25:03;101915.88;;;-0.76;100.00
60244;BME280;46106;51.468;5.814;2022-12-17T00:27:48;101922.22;;;-0.79;100.00
60244;BME280;46106;51.468;5.814;2022-12-17T00:30:31;101931.25;;;-0.86;100.00
60244;BME280;46106;51.468;5.814;2022-12-17T00:33:17;101929.53;;;-0.88;100.00
60244;BME280;46106;51.468;5.814;2022-12-17T00:36:01;101931.31;;;-0.89;100.00
60244;BME280;46106;51.468;5.814;2022-12-17T00:38:48;101923.31;;;-0.94;100.00
60244;BME280;46106;51.468;5.814;2022-12-17T00:41:32;101938.50;;;-0.89;100.00
60244;BME280;46106;51.468;5.814;2022-12-17T00:44:16;101945.72;;;-0.93;100.00
60244;BME280;46106;51.468;5.814;2022-12-17T00:47:00;101937.72;;;-0.98;100.00
60244;BME280;46106;51.468;5.814;2022-12-17T00:49:44;101951.16;;;-0.99;100.00
60244;BME280;46106;51.468;5.814;2022-12-17T00:52:29;101932.50;;;-1.12;100.00
60244;BME280;46106;51.468;5.814;2022-12-17T00:55:13;101945.06;;;-1.12;100.00
60244;BME280;46106;51.468;5.814;2022-12-17T00:57:57;101950.47;;;-1.15;100.00
60244;BME280;46106;51.468;5.814;2022-12-17T01:00:41;101952.25;;;-1.13;100.00
60244;BME280;46106;51.468;5.814;2022-12-17T01:03:26;101955.81;;;-1.12;100.00
60244;BME280;46106;51.468;5.814;2022-12-17T01:06:10;101954.09;;;-1.18;100.00
60244;BME280;46106;51.468;5.814;2022-12-17T01:08:54;101962.13;;;-1.15;100.00
60244;BME280;46106;51.468;5.814;2022-12-17T01:11:38;101958.53;;;-1.15;100.00
60244;BME280;46106;51.468;5.814;2022-12-17T01:14:24;101955.81;;;-1.14;100.00
60244;BME280;46106;51.468;5.814;2022-12-17T01:17:08;101960.31;;;-1.14;100.00
60244;BME280;46106;51.468;5.814;2022-12-17T01:19:53;101970.97;;;-1.05;100.00
60244;BME280;46106;51.468;5.814;2022-12-17T01:22:37;101976.34;;;-1.05;100.00
60244;BME280;46106;51.468;5.814;2022-12-17T01:25:37;101973.56;;;-1.00;100.00
60244;BME280;46106;51.468;5.814;2022-12-17T01:28:22;101973.56;;;-1.00;100.00
60244;BME280;46106;51.468;5.814;2022-12-17T01:31:08;101979.84;;;-1.00;100.00
60244;BME280;46106;51.468;5.814;2022-12-17T01:33:55;101975.34;;;-0.98;100.00
60244;BME280;46106;51.468;5.814;2022-12-17T01:36:39;101979.72;;;-0.90;100.00
60244;BME280;46106;51.468;5.814;2022-12-17T01:39:23;101981.50;;;-0.89;100.00
60244;BME280;46106;51.468;5.814;2022-12-17T01:42:16;101987.78;;;-0.92;100.00
60244;BME280;46106;51.468;5.814;2022-12-17T01:45:01;101991.34;;;-0.88;100.00
60244;BME280;46106;51.468;5.814;2022-12-17T01:47:52;101993.19;;;-0.94;100.00
60244;BME280;46106;51.468;5.814;2022-12-17T01:50:42;101995.81;;;-0.87;100.00
60244;BME280;46106;51.468;5.814;2022-12-17T01:53:31;102001.19;;;-0.87;100.00
60244;BME280;46106;51.468;5.814;2022-12-17T01:56:17;101993.16;;;-0.90;100.00
60244;BME280;46106;51.468;5.814;2022-12-17T01:59:02;102009.25;;;-0.87;100.00
60244;BME280;46106;51.468;5.814;2022-12-17T02:01:47;102003.03;;;-0.91;100.00
60244;BME280;46106;51.468;5.814;2022-12-17T02:04:31;102008.41;;;-0.91;100.00
60244;BME280;46106;51.468;5.814;2022-12-17T02:07:27;102014.63;;;-0.89;100.00
60244;BME280;46106;51.468;5.814;2022-12-17T02:10:26;102015.56;;;-0.88;100.00
60244;BME280;46106;51.468;5.814;2022-12-17T02:13:18;102015.56;;;-0.90;100.00
60244;BME280;46106;51.468;5.814;2022-12-17T02:16:15;102000.38;;;-0.96;100.00
60244;BME280;46106;51.468;5.814;2022-12-17T02:19:15;102007.50;;;-0.90;100.00
60244;BME280;46106;51.468;5.814;2022-12-17T02:22:10;102004.84;;;-0.93;100.00
60244;BME280;46106;51.468;5.814;2022-12-17T02:25:08;102009.28;;;-0.90;100.00
60244;BME280;46106;51.468;5.814;2022-12-17T02:27:54;102006.69;;;-0.95;100.00
60244;BME280;46106;51.468;5.814;2022-12-17T02:30:39;102012.91;;;-0.91;100.00
60244;BME280;46106;51.468;5.814;2022-12-17T02:33:23;102023.66;;;-0.93;100.00
60244;BME280;46106;51.468;5.814;2022-12-17T02:36:07;102021.84;;;-0.93;100.00
60244;BME280;46106;51.468;5.814;2022-12-17T02:38:51;102012.97;;;-0.98;100.00
60244;BME280;46106;51.468;5.814;2022-12-17T02:41:50;102020.94;;;-0.88;100.00
60244;BME280;46106;51.468;5.814;2022-12-17T02:44:36;102020.00;;;-0.87;100.00
60244;BME280;46106;51.468;5.814;2022-12-17T02:47:22;102018.25;;;-0.90;100.00
60244;BME280;46106;51.468;5.814;2022-12-17T02:50:08;102019.16;;;-0.93;100.00
60244;BME280;46106;51.468;5.814;2022-12-17T02:52:58;102024.53;;;-0.93;100.00
60244;BME280;46106;51.468;5.814;2022-12-17T02:55:42;102019.13;;;-0.88;100.00
60244;BME280;46106;51.468;5.814;2022-12-17T02:58:30;102024.50;;;-0.88;100.00
60244;BME280;46106;51.468;5.814;2022-12-17T03:01:14;102020.91;;;-0.87;100.00
60244;BME280;46106;51.468;5.814;2022-12-17T03:03:58;102031.66;;;-0.87;100.00
60244;BME280;46106;51.468;5.814;2022-12-17T03:06:43;102029.81;;;-0.82;100.00
60244;BME280;46106;51.468;5.814;2022-12-17T03:09:29;102028.94;;;-0.85;100.00
60244;BME280;46106;51.468;5.814;2022-12-17T03:12:13;102022.66;;;-0.86;100.00
60244;BME280;46106;51.468;5.814;2022-12-17T03:14:57;102028.00;;;-0.83;100.00
60244;BME280;46106;51.468;5.814;2022-12-17T03:17:41;102032.53;;;-0.86;100.00
60244;BME280;46106;51.468;5.814;2022-12-17T03:20:25;102044.22;;;-0.90;100.00
60244;BME280;46106;51.468;5.814;2022-12-17T03:23:10;102033.47;;;-0.90;100.00
60244;BME280;46106;51.468;5.814;2022-12-17T03:25:59;102040.66;;;-0.91;100.00
60244;BME280;46106;51.468;5.814;2022-12-17T03:28:43;102056.81;;;-0.93;100.00
60244;BME280;46106;51.468;5.814;2022-12-17T03:31:30;102037.06;;;-0.90;100.00
60244;BME280;46106;51.468;5.814;2022-12-17T03:34:14;102052.38;;;-0.95;100.00
60244;BME280;46106;51.468;5.814;2022-12-17T03:36:58;102061.28;;;-0.91;100.00
60244;BME280;46106;51.468;5.814;2022-12-17T03:39:42;102058.63;;;-0.95;100.00
60244;BME280;46106;51.468;5.814;2022-12-17T03:42:26;102056.00;;;-1.01;100.00
60244;BME280;46106;51.468;5.814;2022-12-17T03:45:10;102059.56;;;-0.99;100.00
60244;BME280;46106;51.468;5.814;2022-12-17T03:48:23;102059.56;;;-0.99;100.00
60244;BME280;46106;51.468;5.814;2022-12-17T03:51:07;102052.44;;;-1.01;100.00
60244;BME280;46106;51.468;5.814;2022-12-17T03:53:51;102052.44;;;-1.03;100.00
60244;BME280;46106;51.468;5.814;2022-12-17T03:56:35;102054.22;;;-1.02;100.00
60244;BME280;46106;51.468;5.814;2022-12-17T03:59:19;102047.13;;;-1.06;100.00
60244;BME280;46106;51.468;5.814;2022-12-17T04:02:03;102069.44;;;-0.99;100.00
60244;BME280;46106;51.468;5.814;2022-12-17T04:04:47;102054.22;;;-1.02;100.00
60244;BME280;46106;51.468;5.814;2022-12-17T04:07:31;102062.28;;;-1.03;100.00
60244;BME280;46106;51.468;5.814;2022-12-17T04:10:15;102052.53;;;-1.09;100.00
60244;BME280;46106;51.468;5.814;2022-12-17T04:12:59;102068.53;;;-0.98;100.00
60244;BME280;46106;51.468;5.814;2022-12-17T04:15:42;102066.72;;;-0.98;100.00
60244;BME280;46106;51.468;5.814;2022-12-17T04:18:26;102062.41;;;-1.11;100.00
60244;BME280;46106;51.468;5.814;2022-12-17T04:21:11;102076.66;;;-1.03;100.00
60244;BME280;46106;51.468;5.814;2022-12-17T04:23:54;102073.13;;;-1.08;100.00
60244;BME280;46106;51.468;5.814;2022-12-17T04:26:39;102083.78;;;-1.03;100.00
60244;BME280;46106;51.468;5.814;2022-12-17T04:29:23;102082.94;;;-1.07;100.00
60244;BME280;46106;51.468;5.814;2022-12-17T04:32:07;102084.75;;;-1.09;100.00
60244;BME280;46106;51.468;5.814;2022-12-17T04:34:51;102092.81;;;-1.07;100.00
60244;BME280;46106;51.468;5.814;2022-12-17T04:37:34;102083.88;;;-1.08;100.00
60244;BME280;46106;51.468;5.814;2022-12-17T04:40:18;102089.25;;;-1.08;100.00
60244;BME280;46106;51.468;5.814;2022-12-17T04:43:11;102083.91;;;-1.13;100.00
60244;BME280;46106;51.468;5.814;2022-12-17T04:45:55;102089.22;;;-1.06;100.00
60244;BME280;46106;51.468;5.814;2022-12-17T04:48:39;102102.69;;;-1.08;100.00
60244;BME280;46106;51.468;5.814;2022-12-17T04:51:24;102092.81;;;-1.09;100.00
60244;BME280;46106;51.468;5.814;2022-12-17T04:54:08;102097.34;;;-1.11;100.00
60244;BME280;46106;51.468;5.814;2022-12-17T04:56:52;102102.69;;;-1.08;100.00
60244;BME280;46106;51.468;5.814;2022-12-17T04:59:36;102100.00;;;-1.09;100.00
60244;BME280;46106;51.468;5.814;2022-12-17T05:02:23;102106.25;;;-1.09;100.00
60244;BME280;46106;51.468;5.814;2022-12-17T05:05:07;102107.19;;;-1.12;100.00
60244;BME280;46106;51.468;5.814;2022-12-17T05:07:53;102106.25;;;-1.09;100.00
60244;BME280;46106;51.468;5.814;2022-12-17T05:10:37;102109.84;;;-1.10;100.00
60244;BME280;46106;51.468;5.814;2022-12-17T05:13:34;102107.97;;;-1.02;100.00
60244;BME280;46106;51.468;5.814;2022-12-17T05:16:18;102108.94;;;-1.07;100.00
60244;BME280;46106;51.468;5.814;2022-12-17T05:19:02;102113.34;;;-1.02;100.00
60244;BME280;46106;51.468;5.814;2022-12-17T05:21:46;102104.44;;;-1.07;100.00
60244;BME280;46106;51.468;5.814;2022-12-17T05:24:30;102105.41;;;-1.13;100.00
60244;BME280;46106;51.468;5.814;2022-12-17T05:27:34;102102.72;;;-1.11;100.00
60244;BME280;46106;51.468;5.814;2022-12-17T05:30:17;102102.75;;;-1.14;100.00
60244;BME280;46106;51.468;5.814;2022-12-17T05:33:02;102098.25;;;-1.14;100.00
60244;BME280;46106;51.468;5.814;2022-12-17T05:35:47;102105.44;;;-1.14;100.00
60244;BME280;46106;51.468;5.814;2022-12-17T05:38:31;102101.88;;;-1.16;100.00
60244;BME280;46106;51.468;5.814;2022-12-17T05:41:16;102104.59;;;-1.19;100.00
60244;BME280;46106;51.468;5.814;2022-12-17T05:44:00;102108.13;;;-1.16;100.00
60244;BME280;46106;51.468;5.814;2022-12-17T05:46:43;102114.38;;;-1.15;100.00
60244;BME280;46106;51.468;5.814;2022-12-17T05:49:27;102117.09;;;-1.17;100.00
60244;BME280;46106;51.468;5.814;2022-12-17T05:52:12;102122.47;;;-1.17;100.00
60244;BME280;46106;51.468;5.814;2022-12-17T05:54:55;102122.47;;;-1.18;100.00
60244;BME280;46106;51.468;5.814;2022-12-17T05:57:39;102119.78;;;-1.20;100.00
60244;BME280;46106;51.468;5.814;2022-12-17T06:00:23;102121.56;;;-1.17;100.00
60244;BME280;46106;51.468;5.814;2022-12-17T06:03:08;102113.56;;;-1.23;100.00
60244;BME280;46106;51.468;5.814;2022-12-17T06:05:54;102121.59;;;-1.20;100.00
60244;BME280;46106;51.468;5.814;2022-12-17T06:08:38;102125.16;;;-1.20;100.00
60244;BME280;46106;51.468;5.814;2022-12-17T06:11:22;102127.00;;;-1.22;100.00
60244;BME280;46106;51.468;5.814;2022-12-17T06:14:06;102129.63;;;-1.17;100.00
60244;BME280;46106;51.468;5.814;2022-12-17T06:16:50;102137.69;;;-1.17;100.00
60244;BME280;46106;51.468;5.814;2022-12-17T06:19:34;102134.09;;;-1.15;100.00
60244;BME280;46106;51.468;5.814;2022-12-17T06:22:18;102141.22;;;-1.12;100.00
60244;BME280;46106;51.468;5.814;2022-12-17T06:25:02;102143.94;;;-1.14;100.00
60244;BME280;46106;51.468;5.814;2022-12-17T06:27:46;102154.66;;;-1.11;100.00
60244;BME280;46106;51.468;5.814;2022-12-17T06:30:30;102140.34;;;-1.14;100.00
60244;BME280;46106;51.468;5.814;2022-12-17T06:33:15;102146.66;;;-1.18;100.00
60244;BME280;46106;51.468;5.814;2022-12-17T06:35:59;102157.38;;;-1.14;100.00
60244;BME280;46106;51.468;5.814;2022-12-17T06:38:44;102156.44;;;-1.09;100.00
60244;BME280;46106;51.468;5.814;2022-12-17T06:41:28;102160.06;;;-1.15;100.00
60244;BME280;46106;51.468;5.814;2022-12-17T06:44:11;102163.59;;;-1.12;100.00
60244;BME280;46106;51.468;5.814;2022-12-17T06:46:55;102157.38;;;-1.14;100.00
60244;BME280;46106;51.468;5.814;2022-12-17T06:49:47;102151.09;;;-1.11;100.00
60244;BME280;46106;51.468;5.814;2022-12-17T06:52:31;102146.63;;;-1.14;100.00
60244;BME280;46106;51.468;5.814;2022-12-17T06:55:16;102152.84;;;-1.10;100.00
60244;BME280;46106;51.468;5.814;2022-12-17T06:58:00;102158.31;;;-1.16;100.00
60244;BME280;46106;51.468;5.814;2022-12-17T07:00:45;102163.66;;;-1.15;100.00
60244;BME280;46106;51.468;5.814;2022-12-17T07:03:29;102165.47;;;-1.18;100.00
60244;BME280;46106;51.468;5.814;2022-12-17T07:06:13;102173.50;;;-1.15;100.00
60244;BME280;46106;51.468;5.814;2022-12-17T07:08:57;102174.44;;;-1.16;100.00
60244;BME280;46106;51.468;5.814;2022-12-17T07:11:41;102169.09;;;-1.21;100.00
60244;BME280;46106;51.468;5.814;2022-12-17T07:14:25;102179.81;;;-1.16;100.00
60244;BME280;46106;51.468;5.814;2022-12-17T07:17:09;102180.69;;;-1.19;100.00
60244;BME280;46106;51.468;5.814;2022-12-17T07:19:53;102195.00;;;-1.15;100.00
60244;BME280;46106;51.468;5.814;2022-12-17T07:22:37;102187.00;;;-1.21;100.00
60244;BME280;46106;51.468;5.814;2022-12-17T07:25:22;102203.06;;;-1.15;100.00
60244;BME280;46106;51.468;5.814;2022-12-17T07:28:06;102212.91;;;-1.11;100.00
60244;BME280;46106;51.468;5.814;2022-12-17T07:30:49;102216.47;;;-1.11;100.00
60244;BME280;46106;51.468;5.814;2022-12-17T07:33:33;102208.41;;;-1.12;100.00
60244;BME280;46106;51.468;5.814;2022-12-17T07:36:17;102218.28;;;-1.14;100.00
60244;BME280;46106;51.468;5.814;2022-12-17T07:39:02;102234.31;;;-1.03;100.00
60244;BME280;46106;51.468;5.814;2022-12-17T07:41:46;102217.41;;;-1.13;100.00
60244;BME280;46106;51.468;5.814;2022-12-17T07:44:29;102227.19;;;-1.09;100.00
60244;BME280;46106;51.468;5.814;2022-12-17T07:47:14;102231.72;;;-1.14;100.00
60244;BME280;46106;51.468;5.814;2022-12-17T07:49:58;102235.28;;;-1.11;100.00
60244;BME280;46106;51.468;5.814;2022-12-17T07:52:42;102235.25;;;-1.09;100.00
60244;BME280;46106;51.468;5.814;2022-12-17T07:55:26;102232.59;;;-1.14;100.00
60244;BME280;46106;51.468;5.814;2022-12-17T07:58:10;102246.91;;;-1.12;100.00
60244;BME280;46106;51.468;5.814;2022-12-17T08:00:58;102250.50;;;-1.11;100.00
60244;BME280;46106;51.468;5.814;2022-12-17T08:03:42;102238.91;;;-1.15;100.00
60244;BME280;46106;51.468;5.814;2022-12-17T08:06:26;102246.00;;;-1.09;100.00
60244;BME280;46106;51.468;5.814;2022-12-17T08:09:10;102254.13;;;-1.15;100.00
60244;BME280;46106;51.468;5.814;2022-12-17T08:11:54;102262.19;;;-1.15;100.00
60244;BME280;46106;51.468;5.814;2022-12-17T08:14:38;102263.91;;;-1.05;100.00
60244;BME280;46106;51.468;5.814;2022-12-17T08:17:22;102266.59;;;-1.06;100.00
60244;BME280;46106;51.468;5.814;2022-12-17T08:20:07;102272.00;;;-1.08;100.00
60244;BME280;46106;51.468;5.814;2022-12-17T08:22:51;102279.16;;;-1.10;100.00
60244;BME280;46106;51.468;5.814;2022-12-17T08:25:36;102275.59;;;-1.11;100.00
60244;BME280;46106;51.468;5.814;2022-12-17T08:28:19;102285.47;;;-1.16;100.00
60244;BME280;46106;51.468;5.814;2022-12-17T08:31:03;102289.13;;;-1.23;100.00
60244;BME280;46106;51.468;5.814;2022-12-17T08:33:47;102281.91;;;-1.18;100.00
60244;BME280;46106;51.468;5.814;2022-12-17T08:36:31;102280.97;;;-1.12;100.00
60244;BME280;46106;51.468;5.814;2022-12-17T08:39:15;102280.09;;;-1.11;100.00
60244;BME280;46106;51.468;5.814;2022-12-17T08:41:58;102281.84;;;-1.08;100.00
60244;BME280;46106;51.468;5.814;2022-12-17T08:44:42;102283.66;;;-1.14;100.00
60244;BME280;46106;51.468;5.814;2022-12-17T08:47:26;102283.69;;;-1.18;100.00
60244;BME280;46106;51.468;5.814;2022-12-17T08:50:10;102288.19;;;-1.20;100.00
60244;BME280;46106;51.468;5.814;2022-12-17T08:52:58;102291.72;;;-1.14;100.00
60244;BME280;46106;51.468;5.814;2022-12-17T08:55:43;102281.91;;;-1.18;100.00
60244;BME280;46106;51.468;5.814;2022-12-17T08:58:30;102290.84;;;-1.13;100.00
60244;BME280;46106;51.468;5.814;2022-12-17T09:01:14;102297.97;;;-1.12;100.00
60244;BME280;46106;51.468;5.814;2022-12-17T09:03:57;102305.19;;;-1.15;100.00
60244;BME280;46106;51.468;5.814;2022-12-17T09:06:41;102294.50;;;-1.23;100.00
60244;BME280;46106;51.468;5.814;2022-12-17T09:09:25;102309.63;;;-1.11;100.00
60244;BME280;46106;51.468;5.814;2022-12-17T09:12:09;102302.44;;;-1.09;100.00
60244;BME280;46106;51.468;5.814;2022-12-17T09:14:53;102296.25;;;-1.19;100.00
60244;BME280;46106;51.468;5.814;2022-12-17T09:17:38;102319.47;;;-1.12;100.00
60244;BME280;46106;51.468;5.814;2022-12-17T09:20:22;102304.25;;;-1.09;100.00
60244;BME280;46106;51.468;5.814;2022-12-17T09:23:06;102305.13;;;-1.07;100.00
60244;BME280;46106;51.468;5.814;2022-12-17T09:25:55;102312.34;;;-1.13;100.00
60244;BME280;46106;51.468;5.814;2022-12-17T09:28:39;102303.47;;;-1.25;100.00
60244;BME280;46106;51.468;5.814;2022-12-17T09:31:24;102322.22;;;-1.13;100.00
60244;BME280;46106;51.468;5.814;2022-12-17T09:34:08;102319.50;;;-1.13;100.00
60244;BME280;46106;51.468;5.814;2022-12-17T09:36:52;102321.38;;;-1.21;100.00
60244;BME280;46106;51.468;5.814;2022-12-17T09:39:36;102316.88;;;-1.19;100.00
60244;BME280;46106;51.468;5.814;2022-12-17T09:46:18;102333.00;;;-1.22;100.00
60244;BME280;46106;51.468;5.814;2022-12-17T09:49:15;102327.63;;;-1.24;100.00
60244;BME280;46106;51.468;5.814;2022-12-17T09:55:03;102344.75;;;-1.40;100.00
60244;BME280;46106;51.468;5.814;2022-12-17T09:57:52;102340.22;;;-1.35;100.00
60244;BME280;46106;51.468;5.814;2022-12-17T10:00:44;102353.63;;;-1.29;100.00
60244;BME280;46106;51.468;5.814;2022-12-17T10:03:29;102355.44;;;-1.31;100.00
60244;BME280;46106;51.468;5.814;2022-12-17T10:06:23;102352.81;;;-1.42;100.00
60244;BME280;46106;51.468;5.814;2022-12-17T10:09:15;102364.41;;;-1.34;100.00
60244;BME280;46106;51.468;5.814;2022-12-17T10:12:22;102370.72;;;-1.41;100.00
60244;BME280;46106;51.468;5.814;2022-12-17T10:15:11;102363.56;;;-1.43;100.00
60244;BME280;46106;51.468;5.814;2022-12-17T10:17:57;102361.72;;;-1.35;100.00
60244;BME280;46106;51.468;5.814;2022-12-17T10:21:06;102351.03;;;-1.44;100.00
60244;BME280;46106;51.468;5.814;2022-12-17T10:23:51;102349.28;;;-1.52;100.00
60244;BME280;46106;51.468;5.814;2022-12-17T10:26:47;102362.69;;;-1.47;100.00
60244;BME280;46106;51.468;5.814;2022-12-17T10:29:32;102348.38;;;-1.48;100.00
60244;BME280;46106;51.468;5.814;2022-12-17T10:35:20;102360.00;;;-1.44;100.00
60244;BME280;46106;51.468;5.814;2022-12-17T10:38:25;102358.19;;;-1.43;100.00
60244;BME280;46106;51.468;5.814;2022-12-17T10:41:39;102358.22;;;-1.53;100.00
60244;BME280;46106;51.468;5.814;2022-12-17T10:47:21;102338.63;;;-1.70;100.00
60244;BME280;46106;51.468;5.814;2022-12-17T10:50:17;102352.91;;;-1.63;100.00
60244;BME280;46106;51.468;5.814;2022-12-17T10:53:03;102351.97;;;-1.53;100.00
60244;BME280;46106;51.468;5.814;2022-12-17T10:55:53;102347.53;;;-1.56;100.00
60244;BME280;46106;51.468;5.814;2022-12-17T10:58:45;102363.59;;;-1.50;100.00
60244;BME280;46106;51.468;5.814;2022-12-17T11:01:30;102366.31;;;-1.56;100.00
60244;BME280;46106;51.468;5.814;2022-12-17T11:04:25;102369.91;;;-1.58;100.00
60244;BME280;46106;51.468;5.814;2022-12-17T11:07:33;102372.59;;;-1.64;100.00
60244;BME280;46106;51.468;5.814;2022-12-17T11:10:21;102373.44;;;-1.52;100.00
60244;BME280;46106;51.468;5.814;2022-12-17T11:13:13;102373.44;;;-1.45;100.00
60244;BME280;46106;51.468;5.814;2022-12-17T11:16:00;102380.63;;;-1.55;100.00
60244;BME280;46106;51.468;5.814;2022-12-17T11:24:37;102365.47;;;-1.65;100.00
60244;BME280;46106;51.468;5.814;2022-12-17T11:27:26;102382.41;;;-1.54;100.00
60244;BME280;46106;51.468;5.814;2022-12-17T11:30:13;102375.28;;;-1.64;100.00
60244;BME280;46106;51.468;5.814;2022-12-17T11:32:59;102376.22;;;-1.67;100.00
60244;BME280;46106;51.468;5.814;2022-12-17T11:38:47;102363.69;;;-1.76;100.00
60244;BME280;46106;51.468;5.814;2022-12-17T11:41:51;102368.16;;;-1.67;100.00
60244;BME280;46106;51.468;5.814;2022-12-17T11:50:45;102372.66;;;-1.85;100.00
60244;BME280;46106;51.468;5.814;2022-12-17T11:57:23;102370.94;;;-1.98;100.00
60244;BME280;46106;51.468;5.814;2022-12-17T12:00:18;102363.75;;;-1.93;100.00
60244;BME280;46106;51.468;5.814;2022-12-17T12:09:31;102354.75;;;-1.79;100.00
60244;BME280;46106;51.468;5.814;2022-12-17T12:12:35;102348.50;;;-1.85;100.00
60244;BME280;46106;51.468;5.814;2022-12-17T12:21:49;102361.00;;;-1.74;100.00
60244;BME280;46106;51.468;5.814;2022-12-17T12:24:59;102361.94;;;-1.95;100.00
60244;BME280;46106;51.468;5.814;2022-12-17T12:28:12;102358.38;;;-1.87;100.00
60244;BME280;46106;51.468;5.814;2022-12-17T12:31:26;102364.63;;;-1.88;100.00
60244;BME280;46106;51.468;5.814;2022-12-17T12:34:23;102359.25;;;-1.92;100.00
60244;BME280;46106;51.468;5.814;2022-12-17T12:37:17;102352.13;;;-1.93;100.00
60244;BME280;46106;51.468;5.814;2022-12-17T12:40:27;102353.91;;;-1.95;100.00
60244;BME280;46106;51.468;5.814;2022-12-17T12:43:25;102351.19;;;-1.83;100.00
60244;BME280;46106;51.468;5.814;2022-12-17T12:46:25;102351.19;;;-1.74;100.00
60244;BME280;46106;51.468;5.814;2022-12-17T12:49:19;102347.56;;;-1.71;100.00
60244;BME280;46106;51.468;5.814;2022-12-17T12:52:04;102340.34;;;-1.57;100.00
60244;BME280;46106;51.468;5.814;2022-12-17T12:54:54;102352.91;;;-1.65;100.00
60244;BME280;46106;51.468;5.814;2022-12-17T13:03:21;102335.94;;;-1.65;100.00
60244;BME280;46106;51.468;5.814;2022-12-17T13:06:06;102326.94;;;-1.63;100.00
60244;BME280;46106;51.468;5.814;2022-12-17T13:08:31;102331.34;;;-1.51;100.00
60244;BME280;46106;51.468;5.814;2022-12-17T13:11:24;102326.94;;;-1.63;100.00
60244;BME280;46106;51.468;5.814;2022-12-17T13:13:52;102325.13;;;-1.58;100.00
60244;BME280;46106;51.468;5.814;2022-12-17T13:16:32;102333.16;;;-1.53;100.00
60244;BME280;46106;51.468;5.814;2022-12-17T13:21:42;102324.28;;;-1.71;100.00
60244;BME280;46106;51.468;5.814;2022-12-17T13:24:12;102321.53;;;-1.54;100.00
60244;BME280;46106;51.468;5.814;2022-12-17T13:26:47;102316.16;;;-1.54;100.00
60244;BME280;46106;51.468;5.814;2022-12-17T13:29:22;102311.66;;;-1.50;100.00
60244;BME280;46106;51.468;5.814;2022-12-17T13:32:02;102317.88;;;-1.40;100.00
60244;BME280;46106;51.468;5.814;2022-12-17T13:37:26;102312.53;;;-1.45;100.00
60244;BME280;46106;51.468;5.814;2022-12-17T13:42:34;102317.00;;;-1.44;100.00
60244;BME280;46106;51.468;5.814;2022-12-17T13:45:01;102312.56;;;-1.51;100.00
60244;BME280;46106;51.468;5.814;2022-12-17T13:47:29;102320.59;;;-1.43;100.00
60244;BME280;46106;51.468;5.814;2022-12-17T13:49:57;102318.88;;;-1.60;100.00
60244;BME280;46106;51.468;5.814;2022-12-17T13:52:24;102333.25;;;-1.69;100.00
60244;BME280;46106;51.468;5.814;2022-12-17T13:54:51;102327.03;;;-1.77;100.00
60244;BME280;46106;51.468;5.814;2022-12-17T13:57:22;102332.41;;;-1.83;100.00
60244;BME280;46106;51.468;5.814;2022-12-17T13:59:55;102325.22;;;-1.75;100.00
60244;BME280;46106;51.468;5.814;2022-12-17T14:04:51;102331.47;;;-1.80;100.00
60244;BME280;46106;51.468;5.814;2022-12-17T14:07:18;102340.53;;;-2.03;100.00
60244;BME280;46106;51.468;5.814;2022-12-17T14:09:43;102335.13;;;-1.98;100.00
60244;BME280;46106;51.468;5.814;2022-12-17T14:12:10;102331.59;;;-2.08;100.00
60244;BME280;46106;51.468;5.814;2022-12-17T14:14:49;102321.75;;;-2.11;100.00
60244;BME280;46106;51.468;5.814;2022-12-17T14:17:27;102319.97;;;-2.10;100.00
60244;BME280;46106;51.468;5.814;2022-12-17T14:19:58;102320.88;;;-2.20;100.00
60244;BME280;46106;51.468;5.814;2022-12-17T14:22:38;102327.13;;;-2.22;100.00
60244;BME280;46106;51.468;5.814;2022-12-17T14:25:14;102339.66;;;-2.25;100.00
60244;BME280;46106;51.468;5.814;2022-12-17T14:27:50;102334.34;;;-2.36;100.00
60244;BME280;46106;51.468;5.814;2022-12-17T14:30:32;102343.28;;;-2.46;100.00
60244;BME280;46106;51.468;5.814;2022-12-17T14:32:59;102328.09;;;-2.49;100.00
60244;BME280;46106;51.468;5.814;2022-12-17T14:35:30;102339.72;;;-2.34;100.00
60244;BME280;46106;51.468;5.814;2022-12-17T14:37:56;102343.25;;;-2.48;100.00
60244;BME280;46106;51.468;5.814;2022-12-17T14:40:22;102342.38;;;-2.48;100.00
60244;BME280;46106;51.468;5.814;2022-12-17T14:42:49;102345.97;;;-2.57;100.00
60244;BME280;46106;51.468;5.814;2022-12-17T14:48:00;102360.25;;;-2.55;100.00
60244;BME280;46106;51.468;5.814;2022-12-17T14:50:34;102357.59;;;-2.80;100.00
60244;BME280;46106;51.468;5.814;2022-12-17T14:53:02;102354.91;;;-2.84;100.00
60244;BME280;46106;51.468;5.814;2022-12-17T14:55:37;102360.25;;;-2.60;100.00
60244;BME280;46106;51.468;5.814;2022-12-17T14:58:16;102366.53;;;-2.62;100.00
60244;BME280;46106;51.468;5.814;2022-12-17T15:00:54;102357.56;;;-2.66;100.00
60244;BME280;46106;51.468;5.814;2022-12-17T15:03:24;102360.25;;;-2.81;100.00
60244;BME280;46106;51.468;5.814;2022-12-17T15:06:03;102366.50;;;-2.81;100.00
60244;BME280;46106;51.468;5.814;2022-12-17T15:08:34;102362.03;;;-2.75;100.00
60244;BME280;46106;51.468;5.814;2022-12-17T15:11:00;102360.25;;;-2.86;100.00
60244;BME280;46106;51.468;5.814;2022-12-17T15:13:26;102372.75;;;-2.97;100.00